Česky Dansk Deutsch English Español Suomi Français Magyar Italiano Nederlands norsk Polski Português svenska Türkçe

 

Het Weer

Hohhot (China)

06:00, 21 augustus 2016 (GMT)

 
WE
 
Home            
Hohhot Taiyuan Beijing Yan An Tianjin / Zhangguizhu Yinchuan Jinan Zhengzhou Xian/Xianyang Xi'An Lanzhou / Zhongchuan Ulan-Bator Dalian Qingdao Xining Shenyang / Taokian Hefei Jiuquan Wuhan Paengnyongdo Ab Changchun Nanjing Pyongyang

Om een weerknop op uw website of weblog te plaatsen, copieer onderstaande code en plak die in uw pagina. In het eerste vakje staat HTML-code, in het tweede vakje UBB-code.


Add to Google

Details

Wind speed:2 bf, 3.9 kn, 2 m/s, 4.5 miles/h, 7.2 km/h
Wind direction:S, 170° - W, 280°
Visibility:Greater than 10000 m, 10 km, 32800 ft, 6.2 miles
Clouds:Ein wenig bewölkt at 4000 ft, 1219 m
Temperature:30°C, 86°F
Gefühlte Temperatur:29°C, 85°F
Dew-point:14°C, 57°F
Atmospheric pressure:1014 hPa, 760.6 mmHg, 29.94 inHg, 1.001 atm
Relative humidity:37.7 %
METAR:ZBHH 210600Z 21002MPS 170V280 9999 FEW040 30/14 Q1014 NOSIG

Snelkoppelingen

Actuele weersinformatie van de hele wereld. Voeg locaties toe met het plus (+) symbool. Deze snelkoppelingen kunnen worden toegevoegd aan Google.

Lid van de Technetium groep

website free tracking
StatCounter NetStat W3C Validator

02-10-2022 08:50:02
astro.technetium.be money.technetium.be phote.technetium.be tafeltennistafel.technetium.be www.ligfiets.net